sensor_id;sensor_type;location;lat;lon;timestamp;temperature;humidity
18450;DHT22;9354;50.194;7.690;2022-12-29T00:02:17;9.50;99.90
18450;DHT22;9354;50.194;7.690;2022-12-29T00:04:46;9.40;99.90
18450;DHT22;9354;50.194;7.690;2022-12-29T00:07:13;9.40;99.90
18450;DHT22;9354;50.194;7.690;2022-12-29T00:09:41;9.30;99.90
18450;DHT22;9354;50.194;7.690;2022-12-29T00:12:08;9.30;99.90
18450;DHT22;9354;50.194;7.690;2022-12-29T00:14:35;9.20;99.90
18450;DHT22;9354;50.194;7.690;2022-12-29T00:17:29;9.20;99.90
18450;DHT22;9354;50.194;7.690;2022-12-29T00:19:58;9.20;99.90
18450;DHT22;9354;50.194;7.690;2022-12-29T00:22:43;9.20;99.90
18450;DHT22;9354;50.194;7.690;2022-12-29T00:25:42;9.20;99.90
18450;DHT22;9354;50.194;7.690;2022-12-29T00:28:26;9.20;99.90
18450;DHT22;9354;50.194;7.690;2022-12-29T00:31:12;9.10;99.90
18450;DHT22;9354;50.194;7.690;2022-12-29T00:33:57;9.10;99.90
18450;DHT22;9354;50.194;7.690;2022-12-29T00:36:43;9.00;99.90
18450;DHT22;9354;50.194;7.690;2022-12-29T00:39:13;9.00;99.90
18450;DHT22;9354;50.194;7.690;2022-12-29T00:42:03;9.00;99.90
18450;DHT22;9354;50.194;7.690;2022-12-29T00:44:59;8.90;99.90
18450;DHT22;9354;50.194;7.690;2022-12-29T00:47:27;8.80;99.90
18450;DHT22;9354;50.194;7.690;2022-12-29T00:49:54;8.80;99.90
18450;DHT22;9354;50.194;7.690;2022-12-29T00:52:22;8.80;99.90
18450;DHT22;9354;50.194;7.690;2022-12-29T00:54:49;8.80;99.90
18450;DHT22;9354;50.194;7.690;2022-12-29T00:57:16;8.80;99.90
18450;DHT22;9354;50.194;7.690;2022-12-29T00:59:44;8.80;99.90
18450;DHT22;9354;50.194;7.690;2022-12-29T01:02:11;8.80;99.90
18450;DHT22;9354;50.194;7.690;2022-12-29T01:04:39;8.70;99.90
18450;DHT22;9354;50.194;7.690;2022-12-29T01:07:07;8.70;99.90
18450;DHT22;9354;50.194;7.690;2022-12-29T01:09:35;8.80;99.90
18450;DHT22;9354;50.194;7.690;2022-12-29T01:12:20;8.80;99.90
18450;DHT22;9354;50.194;7.690;2022-12-29T01:15:07;8.80;99.90
18450;DHT22;9354;50.194;7.690;2022-12-29T01:17:35;8.80;99.90
18450;DHT22;9354;50.194;7.690;2022-12-29T01:20:03;8.80;99.90
18450;DHT22;9354;50.194;7.690;2022-12-29T01:22:30;8.80;99.90
18450;DHT22;9354;50.194;7.690;2022-12-29T01:24:59;8.90;99.90
18450;DHT22;9354;50.194;7.690;2022-12-29T01:27:27;8.90;99.90
18450;DHT22;9354;50.194;7.690;2022-12-29T01:29:54;8.90;99.90
18450;DHT22;9354;50.194;7.690;2022-12-29T01:32:22;8.90;99.90
18450;DHT22;9354;50.194;7.690;2022-12-29T01:34:49;8.90;99.90
18450;DHT22;9354;50.194;7.690;2022-12-29T01:37:16;9.00;99.90
18450;DHT22;9354;50.194;7.690;2022-12-29T01:39:44;9.00;99.90
18450;DHT22;9354;50.194;7.690;2022-12-29T01:42:16;9.00;99.90
18450;DHT22;9354;50.194;7.690;2022-12-29T01:44:50;9.10;99.90
18450;DHT22;9354;50.194;7.690;2022-12-29T01:47:25;9.10;99.90
18450;DHT22;9354;50.194;7.690;2022-12-29T01:49:55;9.20;99.90
18450;DHT22;9354;50.194;7.690;2022-12-29T01:52:25;9.20;99.90
18450;DHT22;9354;50.194;7.690;2022-12-29T01:54:55;9.20;99.90
18450;DHT22;9354;50.194;7.690;2022-12-29T01:57:29;9.20;99.90
18450;DHT22;9354;50.194;7.690;2022-12-29T02:00:01;9.30;99.90
18450;DHT22;9354;50.194;7.690;2022-12-29T02:02:30;9.30;99.90
18450;DHT22;9354;50.194;7.690;2022-12-29T02:04:59;9.30;99.90
18450;DHT22;9354;50.194;7.690;2022-12-29T02:07:31;9.30;99.90
18450;DHT22;9354;50.194;7.690;2022-12-29T02:10:00;9.20;99.90
18450;DHT22;9354;50.194;7.690;2022-12-29T02:12:30;9.20;99.90
18450;DHT22;9354;50.194;7.690;2022-12-29T02:15:00;9.20;99.90
18450;DHT22;9354;50.194;7.690;2022-12-29T02:17:41;9.20;99.90
18450;DHT22;9354;50.194;7.690;2022-12-29T02:20:32;9.20;99.90
18450;DHT22;9354;50.194;7.690;2022-12-29T02:23:19;9.20;99.90
18450;DHT22;9354;50.194;7.690;2022-12-29T02:26:09;9.20;99.90
18450;DHT22;9354;50.194;7.690;2022-12-29T02:28:59;9.20;99.90
18450;DHT22;9354;50.194;7.690;2022-12-29T02:31:33;9.20;99.90
18450;DHT22;9354;50.194;7.690;2022-12-29T02:34:13;9.20;99.90
18450;DHT22;9354;50.194;7.690;2022-12-29T02:36:46;9.20;99.90
18450;DHT22;9354;50.194;7.690;2022-12-29T02:39:21;9.20;99.90
18450;DHT22;9354;50.194;7.690;2022-12-29T02:41:57;9.20;99.90
18450;DHT22;9354;50.194;7.690;2022-12-29T02:44:32;9.20;99.90
18450;DHT22;9354;50.194;7.690;2022-12-29T02:47:07;9.20;99.90
18450;DHT22;9354;50.194;7.690;2022-12-29T02:49:40;9.20;99.90
18450;DHT22;9354;50.194;7.690;2022-12-29T02:52:14;9.20;99.90
18450;DHT22;9354;50.194;7.690;2022-12-29T02:54:43;9.20;99.90
18450;DHT22;9354;50.194;7.690;2022-12-29T02:57:12;9.20;99.90
18450;DHT22;9354;50.194;7.690;2022-12-29T02:59:39;9.20;99.90
18450;DHT22;9354;50.194;7.690;2022-12-29T03:02:33;9.20;99.90
18450;DHT22;9354;50.194;7.690;2022-12-29T03:05:31;9.30;99.90
18450;DHT22;9354;50.194;7.690;2022-12-29T03:08:06;9.30;99.90
18450;DHT22;9354;50.194;7.690;2022-12-29T03:10:44;9.40;99.90
18450;DHT22;9354;50.194;7.690;2022-12-29T03:13:18;9.40;99.90
18450;DHT22;9354;50.194;7.690;2022-12-29T03:16:12;9.40;99.90
18450;DHT22;9354;50.194;7.690;2022-12-29T03:18:47;9.50;99.90
18450;DHT22;9354;50.194;7.690;2022-12-29T03:21:21;9.60;99.90
18450;DHT22;9354;50.194;7.690;2022-12-29T03:24:10;9.70;99.90
18450;DHT22;9354;50.194;7.690;2022-12-29T03:26:39;9.80;99.90
18450;DHT22;9354;50.194;7.690;2022-12-29T03:29:08;9.90;99.90
18450;DHT22;9354;50.194;7.690;2022-12-29T03:31:37;9.90;99.90
18450;DHT22;9354;50.194;7.690;2022-12-29T03:34:07;10.00;99.90
18450;DHT22;9354;50.194;7.690;2022-12-29T03:36:39;10.10;99.90
18450;DHT22;9354;50.194;7.690;2022-12-29T03:39:09;10.10;99.90
18450;DHT22;9354;50.194;7.690;2022-12-29T03:41:40;10.20;99.90
18450;DHT22;9354;50.194;7.690;2022-12-29T03:44:11;10.20;99.90
18450;DHT22;9354;50.194;7.690;2022-12-29T03:46:39;10.20;99.90
18450;DHT22;9354;50.194;7.690;2022-12-29T03:49:08;10.30;99.90
18450;DHT22;9354;50.194;7.690;2022-12-29T03:51:35;10.30;99.90
18450;DHT22;9354;50.194;7.690;2022-12-29T03:54:04;10.30;99.90
18450;DHT22;9354;50.194;7.690;2022-12-29T03:56:31;10.30;99.90
18450;DHT22;9354;50.194;7.690;2022-12-29T03:58:59;10.30;99.90
18450;DHT22;9354;50.194;7.690;2022-12-29T04:01:26;10.30;99.90
18450;DHT22;9354;50.194;7.690;2022-12-29T04:03:53;10.30;99.90
18450;DHT22;9354;50.194;7.690;2022-12-29T04:06:22;10.30;99.90
18450;DHT22;9354;50.194;7.690;2022-12-29T04:08:49;10.30;99.90
18450;DHT22;9354;50.194;7.690;2022-12-29T04:11:17;10.30;99.90
18450;DHT22;9354;50.194;7.690;2022-12-29T04:13:44;10.30;99.90
18450;DHT22;9354;50.194;7.690;2022-12-29T04:16:11;10.30;99.90
18450;DHT22;9354;50.194;7.690;2022-12-29T04:18:39;10.40;99.90
18450;DHT22;9354;50.194;7.690;2022-12-29T04:21:06;10.40;99.90
18450;DHT22;9354;50.194;7.690;2022-12-29T04:23:37;10.40;99.90
18450;DHT22;9354;50.194;7.690;2022-12-29T04:26:05;10.40;99.90
18450;DHT22;9354;50.194;7.690;2022-12-29T04:28:35;10.50;99.90
18450;DHT22;9354;50.194;7.690;2022-12-29T04:31:03;10.50;99.90
18450;DHT22;9354;50.194;7.690;2022-12-29T04:33:31;10.50;99.90
18450;DHT22;9354;50.194;7.690;2022-12-29T04:35:58;10.50;99.90
18450;DHT22;9354;50.194;7.690;2022-12-29T04:38:25;10.50;99.90
18450;DHT22;9354;50.194;7.690;2022-12-29T04:40:54;10.50;99.90
18450;DHT22;9354;50.194;7.690;2022-12-29T04:43:22;10.50;99.90
18450;DHT22;9354;50.194;7.690;2022-12-29T04:45:49;10.50;99.90
18450;DHT22;9354;50.194;7.690;2022-12-29T04:48:16;10.50;99.90
18450;DHT22;9354;50.194;7.690;2022-12-29T04:50:44;10.50;99.90
18450;DHT22;9354;50.194;7.690;2022-12-29T04:53:11;10.50;99.90
18450;DHT22;9354;50.194;7.690;2022-12-29T04:55:38;10.50;99.90
18450;DHT22;9354;50.194;7.690;2022-12-29T04:58:07;10.40;99.90
18450;DHT22;9354;50.194;7.690;2022-12-29T05:00:35;10.40;99.90
18450;DHT22;9354;50.194;7.690;2022-12-29T05:03:02;10.40;99.90
18450;DHT22;9354;50.194;7.690;2022-12-29T05:05:29;10.40;99.90
18450;DHT22;9354;50.194;7.690;2022-12-29T05:07:57;10.40;99.90
18450;DHT22;9354;50.194;7.690;2022-12-29T05:10:24;10.40;99.90
18450;DHT22;9354;50.194;7.690;2022-12-29T05:12:51;10.40;99.90
18450;DHT22;9354;50.194;7.690;2022-12-29T05:15:20;10.40;99.90
18450;DHT22;9354;50.194;7.690;2022-12-29T05:17:48;10.40;99.90
18450;DHT22;9354;50.194;7.690;2022-12-29T05:20:15;10.40;99.90
18450;DHT22;9354;50.194;7.690;2022-12-29T05:22:42;10.40;99.90
18450;DHT22;9354;50.194;7.690;2022-12-29T05:25:10;10.40;99.90
18450;DHT22;9354;50.194;7.690;2022-12-29T05:27:37;10.40;99.90
18450;DHT22;9354;50.194;7.690;2022-12-29T05:30:06;10.40;99.90
18450;DHT22;9354;50.194;7.690;2022-12-29T05:32:35;10.40;99.90
18450;DHT22;9354;50.194;7.690;2022-12-29T05:35:02;10.40;99.90
18450;DHT22;9354;50.194;7.690;2022-12-29T05:37:30;10.40;99.90
18450;DHT22;9354;50.194;7.690;2022-12-29T05:39:57;10.40;99.90
18450;DHT22;9354;50.194;7.690;2022-12-29T05:42:25;10.40;99.90
18450;DHT22;9354;50.194;7.690;2022-12-29T05:44:52;10.40;99.90
18450;DHT22;9354;50.194;7.690;2022-12-29T05:47:20;10.40;99.90
18450;DHT22;9354;50.194;7.690;2022-12-29T05:49:48;10.40;99.90
18450;DHT22;9354;50.194;7.690;2022-12-29T05:52:16;10.40;99.90
18450;DHT22;9354;50.194;7.690;2022-12-29T05:54:43;10.40;99.90
18450;DHT22;9354;50.194;7.690;2022-12-29T05:57:10;10.40;99.90
18450;DHT22;9354;50.194;7.690;2022-12-29T05:59:38;10.40;99.90
18450;DHT22;9354;50.194;7.690;2022-12-29T06:02:05;10.40;99.90
18450;DHT22;9354;50.194;7.690;2022-12-29T06:04:32;10.40;99.90
18450;DHT22;9354;50.194;7.690;2022-12-29T06:07:01;10.40;99.90
18450;DHT22;9354;50.194;7.690;2022-12-29T06:09:28;10.40;99.90
18450;DHT22;9354;50.194;7.690;2022-12-29T06:11:56;10.40;99.90
18450;DHT22;9354;50.194;7.690;2022-12-29T06:14:23;10.40;99.90
18450;DHT22;9354;50.194;7.690;2022-12-29T06:16:50;10.40;99.90
18450;DHT22;9354;50.194;7.690;2022-12-29T06:19:18;10.40;99.90
18450;DHT22;9354;50.194;7.690;2022-12-29T06:21:45;10.40;99.90
18450;DHT22;9354;50.194;7.690;2022-12-29T06:24:14;10.30;99.90
18450;DHT22;9354;50.194;7.690;2022-12-29T06:26:41;10.30;99.90
18450;DHT22;9354;50.194;7.690;2022-12-29T06:29:09;10.20;99.90
18450;DHT22;9354;50.194;7.690;2022-12-29T06:31:36;10.10;99.90
18450;DHT22;9354;50.194;7.690;2022-12-29T06:34:04;10.10;99.90
18450;DHT22;9354;50.194;7.690;2022-12-29T06:36:31;10.00;99.90
18450;DHT22;9354;50.194;7.690;2022-12-29T06:38:58;10.00;99.90
18450;DHT22;9354;50.194;7.690;2022-12-29T06:41:27;9.90;99.90
18450;DHT22;9354;50.194;7.690;2022-12-29T06:43:54;9.90;99.90
18450;DHT22;9354;50.194;7.690;2022-12-29T06:46:22;9.80;99.90
18450;DHT22;9354;50.194;7.690;2022-12-29T06:48:49;9.80;99.90
18450;DHT22;9354;50.194;7.690;2022-12-29T06:51:16;9.80;99.90
18450;DHT22;9354;50.194;7.690;2022-12-29T06:53:44;9.70;99.90
18450;DHT22;9354;50.194;7.690;2022-12-29T06:56:11;9.70;99.90
18450;DHT22;9354;50.194;7.690;2022-12-29T06:58:40;9.70;99.90
18450;DHT22;9354;50.194;7.690;2022-12-29T07:01:07;9.70;99.90
18450;DHT22;9354;50.194;7.690;2022-12-29T07:03:35;9.70;99.90
18450;DHT22;9354;50.194;7.690;2022-12-29T07:06:02;9.70;99.90
18450;DHT22;9354;50.194;7.690;2022-12-29T07:08:30;9.80;99.90
18450;DHT22;9354;50.194;7.690;2022-12-29T07:10:57;9.80;99.90
18450;DHT22;9354;50.194;7.690;2022-12-29T07:13:24;9.90;99.90
18450;DHT22;9354;50.194;7.690;2022-12-29T07:15:53;9.90;99.90
18450;DHT22;9354;50.194;7.690;2022-12-29T07:18:21;10.00;99.90
18450;DHT22;9354;50.194;7.690;2022-12-29T07:20:48;10.00;99.90
18450;DHT22;9354;50.194;7.690;2022-12-29T07:23:15;10.00;99.90
18450;DHT22;9354;50.194;7.690;2022-12-29T07:25:43;10.00;99.90
18450;DHT22;9354;50.194;7.690;2022-12-29T07:28:10;10.10;99.90
18450;DHT22;9354;50.194;7.690;2022-12-29T07:30:37;10.10;99.90
18450;DHT22;9354;50.194;7.690;2022-12-29T07:33:06;10.10;99.90
18450;DHT22;9354;50.194;7.690;2022-12-29T07:35:34;10.20;99.90
18450;DHT22;9354;50.194;7.690;2022-12-29T07:38:02;10.20;99.90
18450;DHT22;9354;50.194;7.690;2022-12-29T07:40:29;10.20;99.90
18450;DHT22;9354;50.194;7.690;2022-12-29T07:42:56;10.20;99.90
18450;DHT22;9354;50.194;7.690;2022-12-29T07:45:24;10.30;99.90
18450;DHT22;9354;50.194;7.690;2022-12-29T07:47:51;10.30;99.90
18450;DHT22;9354;50.194;7.690;2022-12-29T07:50:20;10.30;99.90
18450;DHT22;9354;50.194;7.690;2022-12-29T07:52:47;10.30;99.90
18450;DHT22;9354;50.194;7.690;2022-12-29T07:55:15;10.30;99.90
18450;DHT22;9354;50.194;7.690;2022-12-29T07:57:42;10.30;99.90
18450;DHT22;9354;50.194;7.690;2022-12-29T08:00:11;10.30;99.90
18450;DHT22;9354;50.194;7.690;2022-12-29T08:02:38;10.30;99.90
18450;DHT22;9354;50.194;7.690;2022-12-29T08:05:06;10.20;99.90
18450;DHT22;9354;50.194;7.690;2022-12-29T08:07:35;10.20;99.90
18450;DHT22;9354;50.194;7.690;2022-12-29T08:10:03;10.10;99.90
18450;DHT22;9354;50.194;7.690;2022-12-29T08:12:30;10.00;99.90
18450;DHT22;9354;50.194;7.690;2022-12-29T08:14:58;10.00;99.90
18450;DHT22;9354;50.194;7.690;2022-12-29T08:17:25;9.90;99.90
18450;DHT22;9354;50.194;7.690;2022-12-29T08:19:53;9.80;99.90
18450;DHT22;9354;50.194;7.690;2022-12-29T08:22:20;9.80;99.90
18450;DHT22;9354;50.194;7.690;2022-12-29T08:24:49;9.70;99.90
18450;DHT22;9354;50.194;7.690;2022-12-29T08:27:16;9.70;99.90
18450;DHT22;9354;50.194;7.690;2022-12-29T08:29:44;9.60;99.90
18450;DHT22;9354;50.194;7.690;2022-12-29T08:32:11;9.60;99.90
18450;DHT22;9354;50.194;7.690;2022-12-29T08:34:39;9.50;99.90
18450;DHT22;9354;50.194;7.690;2022-12-29T08:37:06;9.50;99.90
18450;DHT22;9354;50.194;7.690;2022-12-29T08:39:34;9.50;99.90
18450;DHT22;9354;50.194;7.690;2022-12-29T08:42:02;9.50;99.90
18450;DHT22;9354;50.194;7.690;2022-12-29T08:44:30;9.50;99.90
18450;DHT22;9354;50.194;7.690;2022-12-29T08:46:57;9.50;99.90
18450;DHT22;9354;50.194;7.690;2022-12-29T08:49:25;9.50;99.90
18450;DHT22;9354;50.194;7.690;2022-12-29T08:51:52;9.50;99.90
18450;DHT22;9354;50.194;7.690;2022-12-29T08:54:19;9.50;99.90
18450;DHT22;9354;50.194;7.690;2022-12-29T08:56:47;9.50;99.90
18450;DHT22;9354;50.194;7.690;2022-12-29T08:59:15;9.50;99.90
18450;DHT22;9354;50.194;7.690;2022-12-29T09:01:43;9.60;99.90
18450;DHT22;9354;50.194;7.690;2022-12-29T09:04:10;9.60;99.90
18450;DHT22;9354;50.194;7.690;2022-12-29T09:06:38;9.60;99.90
18450;DHT22;9354;50.194;7.690;2022-12-29T09:09:05;9.70;99.90
18450;DHT22;9354;50.194;7.690;2022-12-29T09:11:32;9.70;99.90
18450;DHT22;9354;50.194;7.690;2022-12-29T09:14:00;9.80;99.90
18450;DHT22;9354;50.194;7.690;2022-12-29T09:16:28;9.80;99.90
18450;DHT22;9354;50.194;7.690;2022-12-29T09:18:56;9.90;99.90
18450;DHT22;9354;50.194;7.690;2022-12-29T09:21:23;9.90;99.90
18450;DHT22;9354;50.194;7.690;2022-12-29T09:23:51;10.00;99.90
18450;DHT22;9354;50.194;7.690;2022-12-29T09:26:18;10.00;99.90
18450;DHT22;9354;50.194;7.690;2022-12-29T09:28:46;10.00;99.90
18450;DHT22;9354;50.194;7.690;2022-12-29T09:31:13;10.00;99.90
18450;DHT22;9354;50.194;7.690;2022-12-29T09:33:42;9.90;99.90
18450;DHT22;9354;50.194;7.690;2022-12-29T09:36:09;9.90;99.90
18450;DHT22;9354;50.194;7.690;2022-12-29T09:38:37;9.90;99.90
18450;DHT22;9354;50.194;7.690;2022-12-29T09:41:08;9.90;99.90
18450;DHT22;9354;50.194;7.690;2022-12-29T09:43:54;9.80;99.90
18450;DHT22;9354;50.194;7.690;2022-12-29T09:46:24;9.80;99.90
18450;DHT22;9354;50.194;7.690;2022-12-29T09:49:03;9.80;99.90
18450;DHT22;9354;50.194;7.690;2022-12-29T09:51:36;9.80;99.90
18450;DHT22;9354;50.194;7.690;2022-12-29T09:57:02;9.90;99.90
18450;DHT22;9354;50.194;7.690;2022-12-29T09:59:38;9.90;99.90
18450;DHT22;9354;50.194;7.690;2022-12-29T10:02:17;10.00;99.90
18450;DHT22;9354;50.194;7.690;2022-12-29T10:04:49;10.10;99.90
18450;DHT22;9354;50.194;7.690;2022-12-29T10:07:26;10.30;99.90
18450;DHT22;9354;50.194;7.690;2022-12-29T10:10:03;10.50;99.90
18450;DHT22;9354;50.194;7.690;2022-12-29T10:12:48;10.60;99.90
18450;DHT22;9354;50.194;7.690;2022-12-29T10:15:30;10.70;99.90
18450;DHT22;9354;50.194;7.690;2022-12-29T10:18:10;10.80;99.90
18450;DHT22;9354;50.194;7.690;2022-12-29T10:20:49;10.80;99.90
18450;DHT22;9354;50.194;7.690;2022-12-29T10:23:27;10.90;99.90
18450;DHT22;9354;50.194;7.690;2022-12-29T10:25:57;11.00;99.90
18450;DHT22;9354;50.194;7.690;2022-12-29T10:28:34;11.10;99.90
18450;DHT22;9354;50.194;7.690;2022-12-29T10:31:06;11.20;99.90
18450;DHT22;9354;50.194;7.690;2022-12-29T10:33:39;11.30;99.90
18450;DHT22;9354;50.194;7.690;2022-12-29T10:36:14;11.40;99.90
18450;DHT22;9354;50.194;7.690;2022-12-29T10:38:51;11.50;99.90
18450;DHT22;9354;50.194;7.690;2022-12-29T10:41:23;11.60;99.90
18450;DHT22;9354;50.194;7.690;2022-12-29T10:43:54;11.60;99.90
18450;DHT22;9354;50.194;7.690;2022-12-29T10:46:23;11.50;99.90
18450;DHT22;9354;50.194;7.690;2022-12-29T10:48:52;11.40;99.90
18450;DHT22;9354;50.194;7.690;2022-12-29T10:51:24;11.40;99.90
18450;DHT22;9354;50.194;7.690;2022-12-29T10:53:57;11.30;99.90
18450;DHT22;9354;50.194;7.690;2022-12-29T10:56:31;11.20;99.90
18450;DHT22;9354;50.194;7.690;2022-12-29T10:59:03;11.10;99.90
18450;DHT22;9354;50.194;7.690;2022-12-29T11:01:39;11.00;99.90
18450;DHT22;9354;50.194;7.690;2022-12-29T11:04:22;11.00;99.90
18450;DHT22;9354;50.194;7.690;2022-12-29T11:06:54;10.90;99.90
18450;DHT22;9354;50.194;7.690;2022-12-29T11:09:26;10.90;99.90
18450;DHT22;9354;50.194;7.690;2022-12-29T11:11:54;10.80;99.90
18450;DHT22;9354;50.194;7.690;2022-12-29T11:14:28;10.80;99.90
18450;DHT22;9354;50.194;7.690;2022-12-29T11:16:58;10.80;99.90
18450;DHT22;9354;50.194;7.690;2022-12-29T11:19:27;10.70;99.90
18450;DHT22;9354;50.194;7.690;2022-12-29T11:22:13;10.70;99.90
18450;DHT22;9354;50.194;7.690;2022-12-29T11:24:44;10.70;99.90
18450;DHT22;9354;50.194;7.690;2022-12-29T11:27:16;10.70;99.90
18450;DHT22;9354;50.194;7.690;2022-12-29T11:29:45;10.60;99.90
18450;DHT22;9354;50.194;7.690;2022-12-29T11:32:18;10.60;99.90
18450;DHT22;9354;50.194;7.690;2022-12-29T11:34:47;10.60;99.90
18450;DHT22;9354;50.194;7.690;2022-12-29T11:37:18;10.60;99.90
18450;DHT22;9354;50.194;7.690;2022-12-29T11:39:50;10.60;99.90
18450;DHT22;9354;50.194;7.690;2022-12-29T11:42:23;10.60;99.90
18450;DHT22;9354;50.194;7.690;2022-12-29T11:44:55;10.60;99.90
18450;DHT22;9354;50.194;7.690;2022-12-29T11:47:26;10.60;99.90
18450;DHT22;9354;50.194;7.690;2022-12-29T11:49:57;10.50;99.90
18450;DHT22;9354;50.194;7.690;2022-12-29T11:52:30;10.50;99.90
18450;DHT22;9354;50.194;7.690;2022-12-29T11:55:00;10.50;99.90
18450;DHT22;9354;50.194;7.690;2022-12-29T11:57:29;10.50;99.90
18450;DHT22;9354;50.194;7.690;2022-12-29T12:00:01;10.50;99.90
18450;DHT22;9354;50.194;7.690;2022-12-29T12:02:40;10.40;99.90
18450;DHT22;9354;50.194;7.690;2022-12-29T12:05:24;10.40;99.90
18450;DHT22;9354;50.194;7.690;2022-12-29T12:08:02;10.40;99.90
18450;DHT22;9354;50.194;7.690;2022-12-29T12:10:36;10.30;99.90
18450;DHT22;9354;50.194;7.690;2022-12-29T12:13:12;10.40;99.90
18450;DHT22;9354;50.194;7.690;2022-12-29T12:15:46;10.50;99.90
18450;DHT22;9354;50.194;7.690;2022-12-29T12:18:18;10.60;99.90
18450;DHT22;9354;50.194;7.690;2022-12-29T12:20:52;10.70;99.90
18450;DHT22;9354;50.194;7.690;2022-12-29T12:23:38;10.80;99.90
18450;DHT22;9354;50.194;7.690;2022-12-29T12:26:12;10.90;99.90
18450;DHT22;9354;50.194;7.690;2022-12-29T12:28:46;11.00;99.90
18450;DHT22;9354;50.194;7.690;2022-12-29T12:31:21;11.10;99.90
18450;DHT22;9354;50.194;7.690;2022-12-29T12:33:55;11.20;99.90
18450;DHT22;9354;50.194;7.690;2022-12-29T12:36:40;11.20;99.90
18450;DHT22;9354;50.194;7.690;2022-12-29T12:39:26;11.20;99.90
18450;DHT22;9354;50.194;7.690;2022-12-29T12:42:04;11.20;99.90
18450;DHT22;9354;50.194;7.690;2022-12-29T12:44:38;11.10;99.90
18450;DHT22;9354;50.194;7.690;2022-12-29T12:47:26;11.10;99.90
18450;DHT22;9354;50.194;7.690;2022-12-29T12:50:23;11.10;99.90
18450;DHT22;9354;50.194;7.690;2022-12-29T12:56:02;11.10;99.90
18450;DHT22;9354;50.194;7.690;2022-12-29T12:58:38;11.20;99.90
18450;DHT22;9354;50.194;7.690;2022-12-29T13:01:18;11.20;99.90
18450;DHT22;9354;50.194;7.690;2022-12-29T13:03:59;11.30;99.90
18450;DHT22;9354;50.194;7.690;2022-12-29T13:06:38;11.30;99.90
18450;DHT22;9354;50.194;7.690;2022-12-29T13:09:21;11.30;99.90
18450;DHT22;9354;50.194;7.690;2022-12-29T13:12:07;11.30;99.90
18450;DHT22;9354;50.194;7.690;2022-12-29T13:14:46;11.30;99.90
18450;DHT22;9354;50.194;7.690;2022-12-29T13:17:21;11.30;99.90
18450;DHT22;9354;50.194;7.690;2022-12-29T13:19:56;11.30;99.90
18450;DHT22;9354;50.194;7.690;2022-12-29T13:22:31;11.30;99.90
18450;DHT22;9354;50.194;7.690;2022-12-29T13:25:14;11.30;99.90
18450;DHT22;9354;50.194;7.690;2022-12-29T13:27:52;11.20;99.90
18450;DHT22;9354;50.194;7.690;2022-12-29T13:30:23;11.20;99.90
18450;DHT22;9354;50.194;7.690;2022-12-29T13:32:59;11.10;99.90
18450;DHT22;9354;50.194;7.690;2022-12-29T13:35:35;11.10;99.90
18450;DHT22;9354;50.194;7.690;2022-12-29T13:38:11;11.00;99.90
18450;DHT22;9354;50.194;7.690;2022-12-29T13:40:43;10.90;99.90
18450;DHT22;9354;50.194;7.690;2022-12-29T13:43:14;10.90;99.90
18450;DHT22;9354;50.194;7.690;2022-12-29T13:45:44;10.80;99.90
18450;DHT22;9354;50.194;7.690;2022-12-29T13:48:16;10.80;99.90
18450;DHT22;9354;50.194;7.690;2022-12-29T13:50:48;10.70;99.90
18450;DHT22;9354;50.194;7.690;2022-12-29T13:53:24;10.70;99.90
18450;DHT22;9354;50.194;7.690;2022-12-29T13:56:03;10.70;99.90
18450;DHT22;9354;50.194;7.690;2022-12-29T13:58:41;10.60;99.90
18450;DHT22;9354;50.194;7.690;2022-12-29T14:01:17;10.50;99.90
18450;DHT22;9354;50.194;7.690;2022-12-29T14:03:50;10.50;99.90
18450;DHT22;9354;50.194;7.690;2022-12-29T14:06:23;10.50;99.90
18450;DHT22;9354;50.194;7.690;2022-12-29T14:08:53;10.40;99.90
18450;DHT22;9354;50.194;7.690;2022-12-29T14:11:23;10.40;99.90
18450;DHT22;9354;50.194;7.690;2022-12-29T14:13:54;10.40;99.90
18450;DHT22;9354;50.194;7.690;2022-12-29T14:16:28;10.30;99.90
18450;DHT22;9354;50.194;7.690;2022-12-29T14:19:03;10.30;99.90
18450;DHT22;9354;50.194;7.690;2022-12-29T14:21:30;10.30;99.90
18450;DHT22;9354;50.194;7.690;2022-12-29T14:24:28;10.30;99.90
18450;DHT22;9354;50.194;7.690;2022-12-29T14:33:14;10.20;99.90
18450;DHT22;9354;50.194;7.690;2022-12-29T14:35:43;10.20;99.90
18450;DHT22;9354;50.194;7.690;2022-12-29T14:38:29;10.20;99.90
18450;DHT22;9354;50.194;7.690;2022-12-29T14:41:18;10.20;99.90
18450;DHT22;9354;50.194;7.690;2022-12-29T14:43:53;10.20;99.90
18450;DHT22;9354;50.194;7.690;2022-12-29T14:46:22;10.20;99.90
18450;DHT22;9354;50.194;7.690;2022-12-29T14:48:56;10.20;99.90
18450;DHT22;9354;50.194;7.690;2022-12-29T14:51:33;10.20;99.90
18450;DHT22;9354;50.194;7.690;2022-12-29T14:54:40;10.20;99.90
18450;DHT22;9354;50.194;7.690;2022-12-29T14:57:14;10.20;99.90
18450;DHT22;9354;50.194;7.690;2022-12-29T14:59:44;10.20;99.90
18450;DHT22;9354;50.194;7.690;2022-12-29T15:02:16;10.20;99.90
18450;DHT22;9354;50.194;7.690;2022-12-29T15:04:47;10.20;99.90
18450;DHT22;9354;50.194;7.690;2022-12-29T15:07:17;10.20;99.90
18450;DHT22;9354;50.194;7.690;2022-12-29T15:09:50;10.10;99.90
18450;DHT22;9354;50.194;7.690;2022-12-29T15:12:26;10.10;99.90
18450;DHT22;9354;50.194;7.690;2022-12-29T15:14:59;10.10;99.90
18450;DHT22;9354;50.194;7.690;2022-12-29T15:17:28;10.00;99.90
18450;DHT22;9354;50.194;7.690;2022-12-29T15:20:00;10.00;99.90
18450;DHT22;9354;50.194;7.690;2022-12-29T15:22:27;9.90;99.90
18450;DHT22;9354;50.194;7.690;2022-12-29T15:24:55;9.90;99.90
18450;DHT22;9354;50.194;7.690;2022-12-29T15:27:25;9.90;99.90
18450;DHT22;9354;50.194;7.690;2022-12-29T15:29:57;9.80;99.90
18450;DHT22;9354;50.194;7.690;2022-12-29T15:32:26;9.80;99.90
18450;DHT22;9354;50.194;7.690;2022-12-29T15:34:57;9.80;99.90
18450;DHT22;9354;50.194;7.690;2022-12-29T15:37:31;9.80;99.90
18450;DHT22;9354;50.194;7.690;2022-12-29T15:39:59;9.70;99.90
18450;DHT22;9354;50.194;7.690;2022-12-29T15:42:47;9.70;99.90
18450;DHT22;9354;50.194;7.690;2022-12-29T15:45:17;9.60;99.90
18450;DHT22;9354;50.194;7.690;2022-12-29T15:47:45;9.60;99.90
18450;DHT22;9354;50.194;7.690;2022-12-29T15:50:22;9.60;99.90
18450;DHT22;9354;50.194;7.690;2022-12-29T15:52:50;9.60;99.90
18450;DHT22;9354;50.194;7.690;2022-12-29T15:55:23;9.50;99.90
18450;DHT22;9354;50.194;7.690;2022-12-29T15:57:55;9.50;99.90
18450;DHT22;9354;50.194;7.690;2022-12-29T16:00:26;9.50;99.90
18450;DHT22;9354;50.194;7.690;2022-12-29T16:02:55;9.50;99.90
18450;DHT22;9354;50.194;7.690;2022-12-29T16:05:24;9.50;99.90
18450;DHT22;9354;50.194;7.690;2022-12-29T16:07:59;9.50;99.90
18450;DHT22;9354;50.194;7.690;2022-12-29T16:10:31;9.40;99.90
18450;DHT22;9354;50.194;7.690;2022-12-29T16:13:12;9.40;99.90
18450;DHT22;9354;50.194;7.690;2022-12-29T16:15:46;9.40;99.90
18450;DHT22;9354;50.194;7.690;2022-12-29T16:18:22;9.40;99.90
18450;DHT22;9354;50.194;7.690;2022-12-29T16:20:53;9.30;99.90
18450;DHT22;9354;50.194;7.690;2022-12-29T16:23:23;9.30;99.90
18450;DHT22;9354;50.194;7.690;2022-12-29T16:25:53;9.30;99.90
18450;DHT22;9354;50.194;7.690;2022-12-29T16:28:23;9.20;99.90
18450;DHT22;9354;50.194;7.690;2022-12-29T16:30:58;9.20;99.90
18450;DHT22;9354;50.194;7.690;2022-12-29T16:33:44;9.20;99.90
18450;DHT22;9354;50.194;7.690;2022-12-29T16:36:29;9.20;99.90